ENHD

Details ICAO ENHD (HAU)
Name Haugesund Lufthavn Karmoy
Region Norway
Timezone Europe/Oslo (UTC+1.0)
Plans Departing 37
Arriving 45
Stats Elevation 76 ft / 23 m (AMSL)
Location 59.344015° 5.210871°
Runways 1
Magnetic Variation 0.888° E
Sunrise 2017-12-15 08:31:42 UTC / 2017-12-15 09:31:42 Local
Sunset 2017-12-15 14:39:42 UTC / 2017-12-15 15:39:42 Local
Advertisement - Login to hide

Runways

ID Width Length Bearing (true) Bearing (mag) Surface Threshold Offset Overrun Length
14 148 ft / 45 m 6,940 ft / 2,115 m 134.35° 133.46° Asphalt 197 ft / 60 m 0 ft / 0 m
32 148 ft / 45 m 6,940 ft / 2,115 m 314.38° 313.49° Asphalt 197 ft / 60 m 0 ft / 0 m

Approach Navaids

Runway Type Ident Frequency Range Bearing (true) Bearing (mag) Slope Elevation
14 Localiser HD 109.10 MHz 18 nm / 33 km 134.37° 133.49° - 96 ft / 29 m (AMSL)
14 Glidescope HD 109.10 MHz 10 nm / 19 km 134.36° 133.48° 3.00° 76 ft / 23 m (AMSL)

Map

Weather


0- 5 10 15 20 25 30 35+ Temperature / ° C

Clouds and Precipitation
Forecast for 2017-12-15 06:00 UTC. Updated 2 hours ago

Ground ~20,000 ft ~40,000 ft Winds

METAR

ENHD 150420Z AUTO 02011KT 3400 -RA FEW009/// BKN017/// OVC021/// 03/02 Q0988 RESHRA

TAF

Not found

Frequencies

Recorded 118.17 MHz ATIS
Tower 121.10 MHz TWR
Tower 120.50 MHz TWR
Warning: Do not use this data for real-world aviation or navigation. No guarantee of current accuracy is given.